Time;durP1;ratioP1;P1;durP2;ratioP2;P2;SDS_P1;SDS_P2;PMS_P1;PMS_P2;Temp;Humidity;BMP_temperature;BMP_pressure;BME280_temperature;BME280_humidity;BME280_pressure;Samples;Min_cycle;Max_cycle;Signal;HPM_P1;HPM_P2
2022/05/09 00:01:58;;;;;;;22.52;6.50;;;;;;;10.91;72.68;102718.63;5018727;28;20026;-82
2022/05/09 00:04:23;;;;;;;19.48;5.28;;;;;;;10.86;73.22;102723.47;5018074;28;20397;-82
2022/05/09 00:06:49;;;;;;;20.02;5.30;;;;;;;10.83;73.35;102719.22;5019017;28;20168;-83
2022/05/09 00:09:16;;;;;;;16.60;5.72;;;;;;;10.78;73.45;102710.69;5019660;28;20049;-83
2022/05/09 00:11:42;;;;;;;18.80;5.10;;;;;;;10.79;73.38;102712.38;5013981;28;20054;-83
2022/05/09 00:14:08;;;;;;;16.65;4.15;;;;;;;10.74;73.84;102707.41;4999480;28;20053;-82
2022/05/09 00:16:34;;;;;;;24.02;6.20;;;;;;;10.69;74.47;102706.88;4997953;28;20025;-82
2022/05/09 00:19:03;;;;;;;24.13;6.88;;;;;;;10.63;74.83;102704.69;4999228;28;20125;-83
2022/05/09 00:21:30;;;;;;;25.95;7.13;;;;;;;10.58;74.67;102701.50;4998822;28;20484;-83
2022/05/09 00:23:57;;;;;;;25.02;7.70;;;;;;;10.54;75.24;102700.91;4999442;28;20694;-83
2022/05/09 00:26:22;;;;;;;13.90;4.20;;;;;;;10.45;75.24;102699.78;4999095;28;20021;-83
2022/05/09 00:28:48;;;;;;;16.92;4.07;;;;;;;10.40;75.33;102706.41;4998093;28;20457;-83
2022/05/09 00:31:13;;;;;;;18.52;3.97;;;;;;;10.35;76.55;102701.41;4998644;28;20014;-83
2022/05/09 00:33:39;;;;;;;13.90;3.70;;;;;;;10.27;76.80;102696.59;4999087;28;20635;-84
2022/05/09 00:36:05;;;;;;;14.00;3.78;;;;;;;10.22;76.68;102698.75;4999042;28;20041;-84
2022/05/09 00:38:30;;;;;;;14.27;3.83;;;;;;;10.17;77.32;102698.25;4998420;28;20030;-84
2022/05/09 00:43:40;;;;;;;24.60;8.00;;;;;;;10.19;76.93;102690.97;5000627;28;20180;-83
2022/05/09 00:46:08;;;;;;;22.75;7.32;;;;;;;10.17;77.87;102689.41;4995687;28;20071;-83
2022/05/09 00:48:34;;;;;;;19.48;5.30;;;;;;;10.15;77.75;102693.97;4997783;28;20025;-83
2022/05/09 00:51:01;;;;;;;16.25;4.97;;;;;;;10.11;77.55;102697.84;4997152;28;20249;-83
2022/05/09 00:53:30;;;;;;;15.15;5.45;;;;;;;10.06;77.77;102696.38;4995646;28;20623;-82
2022/05/09 00:56:00;;;;;;;21.27;5.22;;;;;;;10.03;79.13;102693.03;4996966;28;20018;-81
2022/05/09 00:58:35;;;;;;;22.67;5.80;;;;;;;9.99;78.12;102696.91;4997802;28;20272;-83
2022/05/09 01:01:03;;;;;;;22.98;5.03;;;;;;;9.96;78.08;102694.47;4997834;28;20507;-83
2022/05/09 01:03:50;;;;;;;21.50;4.78;;;;;;;9.86;78.08;102691.59;5001561;28;20104;-84
2022/05/09 01:06:16;;;;;;;17.88;4.07;;;;;;;9.76;78.95;102685.22;5000847;28;20026;-83
2022/05/09 01:08:41;;;;;;;19.85;4.65;;;;;;;9.76;79.36;102680.78;4998451;28;20079;-84
2022/05/09 01:11:09;;;;;;;14.65;4.20;;;;;;;9.75;80.38;102679.03;5012043;28;20029;-83
2022/05/09 01:13:43;;;;;;;12.35;4.78;;;;;;;9.69;80.24;102677.69;5059351;28;20059;-84
2022/05/09 01:16:09;;;;;;;21.30;5.18;;;;;;;9.65;80.47;102678.84;5039375;28;20464;-83
2022/05/09 01:18:36;;;;;;;22.17;5.93;;;;;;;9.65;81.21;102681.53;5040332;28;20033;-84
2022/05/09 01:21:07;;;;;;;23.33;6.75;;;;;;;9.64;81.41;102677.16;5039505;28;20104;-84
2022/05/09 01:23:34;;;;;;;25.58;7.38;;;;;;;9.60;81.43;102681.00;5040125;28;20028;-83
2022/05/09 01:25:59;;;;;;;22.63;4.82;;;;;;;9.54;81.39;102678.78;5022288;28;20100;-84
2022/05/09 01:28:25;;;;;;;15.00;4.63;;;;;;;9.43;81.41;102670.69;5040269;28;20089;-83
2022/05/09 01:30:56;;;;;;;13.50;4.25;;;;;;;9.37;82.21;102674.66;5039970;28;20039;-83
2022/05/09 01:33:37;;;;;;;16.27;4.40;;;;;;;9.40;81.58;102668.22;5039218;28;20047;-84
2022/05/09 01:36:14;;;;;;;16.58;6.43;;;;;;;9.34;82.23;102670.38;5041453;28;20036;-83
2022/05/09 01:38:46;;;;;;;23.52;7.30;;;;;;;9.38;82.76;102664.81;5043211;28;20040;-83
2022/05/09 01:41:12;;;;;;;26.85;7.13;;;;;;;9.31;82.64;102665.25;5041470;28;20519;-83
2022/05/09 01:43:44;;;;;;;31.38;10.43;;;;;;;9.32;82.71;102660.78;5023618;28;20032;-84
2022/05/09 01:46:13;;;;;;;20.08;5.85;;;;;;;9.23;83.40;102656.94;5022312;28;20515;-83
2022/05/09 01:51:23;;;;;;;37.55;15.85;;;;;;;9.19;84.45;102658.13;5041484;28;20479;-83
2022/05/09 01:53:52;;;;;;;24.88;10.20;;;;;;;9.16;84.05;102666.31;5040828;28;20025;-83
2022/05/09 01:56:19;;;;;;;18.58;6.93;;;;;;;9.13;84.79;102664.72;5041415;28;20391;-83
2022/05/09 01:58:45;;;;;;;14.13;4.80;;;;;;;9.10;85.55;102664.94;5041611;28;20159;-83
2022/05/09 02:01:11;;;;;;;20.45;4.22;;;;;;;9.04;85.60;102649.38;5052939;28;20446;-84
2022/05/09 02:03:36;;;;;;;17.65;4.60;;;;;;;9.04;85.69;102661.84;5050676;28;20029;-84
2022/05/09 02:06:02;;;;;;;18.08;4.72;;;;;;;9.07;87.23;102664.31;5039553;28;20028;-84
2022/05/09 02:08:28;;;;;;;15.18;4.45;;;;;;;9.06;86.70;102665.25;5039442;28;20103;-84
2022/05/09 02:10:53;;;;;;;19.67;4.65;;;;;;;9.07;86.41;102661.63;5039992;28;20535;-81
2022/05/09 02:13:20;;;;;;;17.05;4.65;;;;;;;9.02;86.45;102658.44;5039065;28;20112;-82
2022/05/09 02:15:45;;;;;;;12.25;4.20;;;;;;;8.96;86.77;102665.03;5038894;28;20555;-83
2022/05/09 02:18:10;;;;;;;21.38;4.63;;;;;;;8.81;87.21;102669.63;5041149;28;20045;-83
2022/05/09 02:20:36;;;;;;;15.05;4.90;;;;;;;8.65;87.77;102661.78;5042837;28;20040;-82
2022/05/09 02:23:01;;;;;;;15.80;4.72;;;;;;;8.52;88.97;102668.91;5040978;28;20037;-82
2022/05/09 02:25:29;;;;;;;19.23;5.22;;;;;;;8.47;89.59;102665.69;5020640;28;20131;-83
2022/05/09 02:27:56;;;;;;;12.02;4.40;;;;;;;8.43;89.69;102662.38;5038883;28;20060;-83
2022/05/09 02:30:21;;;;;;;17.33;4.63;;;;;;;8.42;89.11;102660.66;5038993;28;20025;-83
2022/05/09 02:32:47;;;;;;;15.55;4.65;;;;;;;8.38;89.83;102649.38;5039685;28;20357;-83
2022/05/09 02:35:13;;;;;;;19.65;5.50;;;;;;;8.43;89.45;102654.41;5038906;28;20104;-82
2022/05/09 02:37:38;;;;;;;17.80;5.05;;;;;;;8.43;89.63;102649.06;5039169;28;20395;-82
2022/05/09 02:40:04;;;;;;;19.15;4.60;;;;;;;8.46;90.24;102648.03;5020703;28;20448;-82
2022/05/09 02:42:29;;;;;;;18.42;4.82;;;;;;;8.45;90.07;102649.81;5039195;28;20106;-82
2022/05/09 02:44:55;;;;;;;18.92;4.90;;;;;;;8.41;89.91;102645.63;5039475;28;20956;-82
2022/05/09 02:47:20;;;;;;;18.38;4.82;;;;;;;8.45;90.13;102651.63;5039982;28;20025;-82
2022/05/09 02:49:46;;;;;;;23.25;4.85;;;;;;;8.38;90.74;102652.03;5041573;28;20036;-82
2022/05/09 02:52:12;;;;;;;18.60;4.80;;;;;;;8.35;90.54;102662.00;5061513;28;20019;-83
2022/05/09 02:54:37;;;;;;;15.98;4.90;;;;;;;8.22;90.88;102651.34;5060582;28;20043;-83
2022/05/09 02:57:02;;;;;;;16.38;4.47;;;;;;;8.10;91.69;102663.63;5079911;28;20020;-83
2022/05/09 02:59:28;;;;;;;12.63;4.47;;;;;;;8.02;91.57;102656.13;5079803;28;20101;-83
2022/05/09 03:01:53;;;;;;;13.63;4.20;;;;;;;8.00;91.54;102649.22;5078855;28;20027;-84
2022/05/09 03:07:03;;;;;;;16.13;4.53;;;;;;;7.94;91.75;102642.50;5077963;28;20125;-83
2022/05/09 03:09:28;;;;;;;16.88;4.97;;;;;;;7.96;93.13;102645.03;5060714;28;20051;-83
2022/05/09 03:11:53;;;;;;;19.02;5.20;;;;;;;7.99;92.80;102640.41;5049785;28;20049;-83
2022/05/09 03:14:19;;;;;;;13.70;5.00;;;;;;;7.98;93.10;102640.50;5039518;28;20036;-81
2022/05/09 03:16:44;;;;;;;19.63;5.70;;;;;;;7.93;93.27;102638.13;5038921;28;20025;-82
2022/05/09 03:19:09;;;;;;;22.20;5.03;;;;;;;7.92;93.52;102641.72;5039484;28;20024;-83
2022/05/09 03:21:35;;;;;;;20.23;5.35;;;;;;;7.89;93.14;102639.28;5038126;28;20104;-83
2022/05/09 03:24:00;;;;;;;17.52;5.35;;;;;;;7.85;93.17;102640.41;5038138;28;20426;-82
2022/05/09 03:26:25;;;;;;;22.55;5.80;;;;;;;7.84;94.46;102633.38;5020570;28;20036;-81
2022/05/09 03:28:51;;;;;;;18.10;5.00;;;;;;;7.79;95.12;102627.50;5042629;28;20147;-82
2022/05/09 03:31:17;;;;;;;19.92;5.22;;;;;;;7.78;94.78;102629.31;5040247;28;20028;-83
2022/05/09 03:33:42;;;;;;;17.55;5.30;;;;;;;7.75;95.45;102628.66;5059425;28;20025;-84
2022/05/09 03:36:08;;;;;;;23.13;5.10;;;;;;;7.71;95.14;102628.00;5059364;28;20020;-83
2022/05/09 03:38:33;;;;;;;15.73;5.15;;;;;;;7.72;95.03;102626.19;5059275;28;20083;-83
2022/05/09 03:40:59;;;;;;;20.35;5.35;;;;;;;7.64;95.88;102629.38;5056866;28;20296;-83
2022/05/09 03:43:24;;;;;;;15.68;5.35;;;;;;;7.46;96.50;102623.41;5058160;28;20137;-83
2022/05/09 03:45:50;;;;;;;18.60;4.95;;;;;;;7.38;97.52;102629.22;5058436;28;20029;-82
2022/05/09 03:48:16;;;;;;;23.55;5.40;;;;;;;7.36;97.69;102631.09;5059823;28;20020;-83
2022/05/09 03:50:41;;;;;;;21.83;5.60;;;;;;;7.31;98.36;102633.19;5067924;28;20024;-83
2022/05/09 03:53:07;;;;;;;19.75;5.40;;;;;;;7.33;97.36;102628.66;5079589;28;20016;-83
2022/05/09 03:55:33;;;;;;;20.20;6.07;;;;;;;7.38;97.28;102631.88;5078379;28;20042;-83
2022/05/09 03:57:59;;;;;;;15.70;5.25;;;;;;;7.36;97.71;102624.94;5079359;28;20059;-83
2022/05/09 04:00:26;;;;;;;15.35;5.45;;;;;;;7.33;98.49;102633.97;5059510;28;20020;-84
2022/05/09 04:02:52;;;;;;;16.70;5.63;;;;;;;7.28;98.08;102630.72;5075304;28;20040;-83
2022/05/09 04:05:18;;;;;;;21.60;5.88;;;;;;;7.25;98.14;102637.09;5041163;28;20025;-83
2022/05/09 04:07:46;;;;;;;20.77;5.85;;;;;;;7.27;98.55;102639.66;5041085;28;20029;-83
2022/05/09 04:10:13;;;;;;;19.20;5.80;;;;;;;7.26;98.53;102637.94;5040962;28;20024;-83
2022/05/09 04:12:40;;;;;;;15.20;5.13;;;;;;;7.27;98.40;102634.34;5058296;28;20048;-83
2022/05/09 04:17:50;;;;;;;14.25;5.63;;;;;;;7.29;99.12;102624.47;5057303;28;20712;-84
2022/05/09 04:20:15;;;;;;;16.35;5.72;;;;;;;7.34;98.13;102626.84;5038868;28;20042;-82
2022/05/09 04:22:41;;;;;;;22.67;5.72;;;;;;;7.36;98.67;102625.78;5019852;28;20124;-83
2022/05/09 04:25:07;;;;;;;20.13;5.70;;;;;;;7.41;98.57;102622.84;5039021;28;20061;-83
2022/05/09 04:27:33;;;;;;;22.55;5.88;;;;;;;7.47;97.85;102618.00;5045622;28;20036;-83
2022/05/09 04:29:58;;;;;;;13.95;5.60;;;;;;;7.54;97.71;102618.44;5058817;28;20082;-83
2022/05/09 04:32:24;;;;;;;21.70;6.13;;;;;;;7.54;97.48;102609.63;5058050;28;20051;-83
2022/05/09 04:34:49;;;;;;;17.00;5.80;;;;;;;7.61;97.88;102613.59;5057615;28;20028;-83
2022/05/09 04:37:15;;;;;;;20.10;5.90;;;;;;;7.64;98.08;102616.06;5043971;28;20049;-83
2022/05/09 04:39:41;;;;;;;19.20;6.32;;;;;;;7.64;98.35;102608.09;5062534;28;20455;-84
2022/05/09 04:42:07;;;;;;;20.85;6.00;;;;;;;7.66;99.76;102614.16;5062778;28;20094;-83
2022/05/09 04:44:32;;;;;;;22.55;6.07;;;;;;;7.74;99.32;102617.19;5044294;28;20028;-82
2022/05/09 04:46:58;;;;;;;20.20;6.32;;;;;;;7.75;98.64;102615.38;5061724;28;20020;-82
2022/05/09 04:49:24;;;;;;;23.08;6.10;;;;;;;7.70;98.37;102605.00;5043848;28;20025;-82
2022/05/09 04:51:49;;;;;;;25.67;6.40;;;;;;;7.70;98.46;102617.47;5062577;28;20013;-82
2022/05/09 04:54:16;;;;;;;18.83;5.82;;;;;;;7.63;99.99;102609.88;5063001;28;20025;-82
2022/05/09 04:56:41;;;;;;;22.38;5.53;;;;;;;7.70;99.51;102615.66;5061689;28;20116;-84
2022/05/09 04:59:06;;;;;;;16.25;5.95;;;;;;;7.70;99.67;102599.69;5042954;28;20077;-82
2022/05/09 05:01:32;;;;;;;25.92;6.45;;;;;;;7.85;99.33;102603.19;5060992;28;20017;-84
2022/05/09 05:03:57;;;;;;;21.05;6.28;;;;;;;7.92;98.84;102603.63;5062440;28;20400;-83
2022/05/09 05:06:22;;;;;;;20.73;5.97;;;;;;;8.01;98.67;102598.56;5060633;28;20260;-83
2022/05/09 05:08:48;;;;;;;24.48;6.60;;;;;;;8.06;98.89;102600.06;5061888;28;20195;-83
2022/05/09 05:11:13;;;;;;;21.58;6.63;;;;;;;8.06;98.52;102602.72;5063215;28;20376;-83
2022/05/09 05:13:39;;;;;;;19.80;6.57;;;;;;;8.11;99.53;102600.59;5061324;28;20029;-83
2022/05/09 05:16:04;;;;;;;19.38;6.60;;;;;;;8.09;98.67;102595.38;5058686;28;20604;-83
2022/05/09 05:18:32;;;;;;;21.25;6.10;;;;;;;8.18;98.48;102599.25;5061964;28;20490;-83
2022/05/09 05:20:57;;;;;;;20.25;6.80;;;;;;;8.27;97.61;102598.66;5062192;28;20032;-82
2022/05/09 05:23:23;;;;;;;19.30;6.07;;;;;;;8.33;96.52;102606.22;5063167;28;20028;-83
2022/05/09 05:25:48;;;;;;;22.65;6.05;;;;;;;8.40;96.93;102603.97;5061746;28;20100;-83
2022/05/09 05:28:15;;;;;;;23.35;6.43;;;;;;;8.51;96.45;102613.94;5060874;28;20467;-83
2022/05/09 05:30:41;;;;;;;20.17;6.10;;;;;;;8.57;95.66;102601.06;5059665;28;20422;-83
2022/05/09 05:33:06;;;;;;;23.05;7.13;;;;;;;8.66;96.14;102604.06;5061858;28;20028;-82
2022/05/09 05:35:32;;;;;;;17.45;6.07;;;;;;;8.77;94.92;102613.03;5043074;28;20364;-83
2022/05/09 05:37:58;;;;;;;21.27;5.78;;;;;;;8.85;94.06;102609.81;5061401;28;20078;-83
2022/05/09 05:40:23;;;;;;;15.30;5.85;;;;;;;8.92;94.34;102607.59;5060657;28;20070;-83
2022/05/09 05:42:49;;;;;;;19.13;6.03;;;;;;;8.98;93.37;102608.97;5061458;28;20078;-82
2022/05/09 05:45:17;;;;;;;26.40;6.10;;;;;;;9.04;93.10;102606.72;5062380;28;20100;-82
2022/05/09 05:47:42;;;;;;;19.42;6.80;;;;;;;9.12;92.68;102614.19;5061540;28;20325;-84
2022/05/09 05:50:11;;;;;;;21.73;6.97;;;;;;;9.22;92.47;102603.75;5061044;28;20070;-82
2022/05/09 05:52:37;;;;;;;24.63;6.43;;;;;;;9.29;91.24;102611.19;5042761;28;20028;-82
2022/05/09 05:55:04;;;;;;;26.92;6.78;;;;;;;9.37;90.29;102607.97;5060297;28;20025;-83
2022/05/09 05:57:32;;;;;;;21.98;6.28;;;;;;;9.46;89.93;102609.97;5040853;28;20032;-83
2022/05/09 06:00:02;;;;;;;24.55;6.57;;;;;;;9.55;89.64;102612.94;5058639;28;20450;-83
2022/05/09 06:02:28;;;;;;;19.73;6.80;;;;;;;9.62;89.24;102604.41;5059584;28;20111;-83
2022/05/09 06:04:54;;;;;;;19.45;7.00;;;;;;;9.71;89.09;102605.53;5059085;28;20131;-83
2022/05/09 06:07:22;;;;;;;26.38;7.28;;;;;;;9.81;88.46;102608.38;5058715;28;20457;-83
2022/05/09 06:09:49;;;;;;;21.10;6.78;;;;;;;9.89;88.23;102606.00;5060813;28;20283;-83
2022/05/09 06:12:16;;;;;;;27.45;7.38;;;;;;;9.99;88.93;102611.50;5040371;28;20106;-83
2022/05/09 06:14:42;;;;;;;24.85;7.10;;;;;;;10.05;87.45;102609.22;5040653;28;20190;-83
2022/05/09 06:17:08;;;;;;;26.67;7.50;;;;;;;10.15;86.87;102605.88;5039563;28;20114;-83
2022/05/09 06:19:34;;;;;;;26.40;7.10;;;;;;;10.26;86.74;102613.94;5022423;28;20103;-83
2022/05/09 06:22:00;;;;;;;23.77;7.40;;;;;;;10.34;86.52;102608.06;5038540;28;20082;-83
2022/05/09 06:24:26;;;;;;;30.65;8.10;;;;;;;10.51;86.13;102612.13;5039344;28;20368;-83
2022/05/09 06:26:51;;;;;;;17.08;7.53;;;;;;;10.59;84.42;102607.00;5049728;28;20047;-83
2022/05/09 06:29:18;;;;;;;21.35;7.40;;;;;;;10.72;83.70;102610.44;5050250;28;20471;-83
2022/05/09 06:31:44;;;;;;;22.92;7.45;;;;;;;10.84;82.69;102614.00;5028785;28;20024;-83
2022/05/09 06:34:11;;;;;;;30.25;8.00;;;;;;;10.97;82.82;102617.41;5048160;28;20204;-84
2022/05/09 06:36:38;;;;;;;25.75;7.65;;;;;;;11.09;82.48;102610.25;5048963;28;20182;-83
2022/05/09 06:39:05;;;;;;;29.42;7.95;;;;;;;11.24;81.45;102607.34;5049007;28;20016;-83
2022/05/09 06:41:31;;;;;;;30.10;7.45;;;;;;;11.33;81.05;102615.47;5031929;28;20186;-83
2022/05/09 06:43:56;;;;;;;28.00;7.38;;;;;;;11.45;80.45;102613.63;5047628;28;20024;-83
2022/05/09 06:46:21;;;;;;;24.73;7.35;;;;;;;11.59;79.24;102601.81;5049959;28;20278;-84
2022/05/09 06:48:47;;;;;;;19.73;7.05;;;;;;;11.66;78.99;102594.13;5059780;28;20017;-84
2022/05/09 06:51:13;;;;;;;22.48;8.02;;;;;;;11.84;77.21;102600.66;5049417;28;20426;-84
2022/05/09 06:53:42;;;;;;;23.77;7.47;;;;;;;11.96;78.30;102595.31;5049088;28;20028;-84
2022/05/09 06:56:08;;;;;;;22.25;7.05;;;;;;;12.09;76.12;102602.19;5031923;28;20020;-84
2022/05/09 06:58:33;;;;;;;24.55;7.70;;;;;;;12.24;75.91;102605.44;5047587;28;20021;-83
2022/05/09 07:00:59;;;;;;;22.48;7.72;;;;;;;12.38;75.98;102606.94;5050225;28;20702;-84
2022/05/09 07:03:25;;;;;;;22.85;7.72;;;;;;;12.52;74.56;102607.59;5049738;28;20482;-84
2022/05/09 07:05:52;;;;;;;24.27;7.90;;;;;;;12.73;72.37;102602.22;5050084;28;20024;-83
2022/05/09 07:08:19;;;;;;;26.92;7.85;;;;;;;12.82;70.64;102598.75;5050470;28;20502;-83
2022/05/09 07:10:44;;;;;;;25.50;7.32;;;;;;;13.03;70.85;102596.03;5029631;28;20020;-83
2022/05/09 07:13:10;;;;;;;30.60;7.60;;;;;;;13.19;71.27;102590.19;5050416;28;20052;-82
2022/05/09 07:15:36;;;;;;;22.63;7.78;;;;;;;13.40;72.48;102590.97;5048658;28;20087;-83
2022/05/09 07:18:02;;;;;;;18.52;7.25;;;;;;;13.57;68.11;102584.09;5050148;28;20016;-83
2022/05/09 07:20:32;;;;;;;27.50;7.68;;;;;;;13.80;67.92;102589.25;5047809;28;20032;-83
2022/05/09 07:23:05;;;;;;;22.63;7.22;;;;;;;14.03;69.11;102588.97;5030157;28;20100;-83
2022/05/09 07:25:31;;;;;;;30.17;7.65;;;;;;;14.20;64.31;102593.63;5049586;28;20442;-84
2022/05/09 07:27:56;;;;;;;26.80;7.75;;;;;;;14.25;64.41;102598.56;5047211;28;20077;-84
2022/05/09 07:30:23;;;;;;;27.02;7.85;;;;;;;14.35;64.61;102594.88;5050580;28;20052;-83
2022/05/09 07:32:52;;;;;;;22.67;7.30;;;;;;;14.54;63.03;102596.72;5050506;28;20044;-84
2022/05/09 07:35:17;;;;;;;18.17;6.95;;;;;;;14.73;62.90;102598.53;5049573;28;20028;-84
2022/05/09 07:37:44;;;;;;;25.50;7.90;;;;;;;14.91;61.61;102597.78;5048788;28;20338;-84
2022/05/09 07:40:11;;;;;;;28.58;7.20;;;;;;;15.07;63.46;102599.84;5049374;28;20017;-83
2022/05/09 07:42:40;;;;;;;25.42;7.35;;;;;;;15.19;65.80;102597.81;5048253;28;20024;-84
2022/05/09 07:45:07;;;;;;;27.85;7.82;;;;;;;15.33;60.27;102593.78;5048075;28;20166;-83
2022/05/09 07:47:32;;;;;;;30.05;9.13;;;;;;;15.39;59.78;102593.19;5050199;28;20038;-82
2022/05/09 07:49:58;;;;;;;36.38;9.75;;;;;;;15.50;60.38;102598.38;5050054;28;20029;-83
2022/05/09 07:52:24;;;;;;;24.88;7.78;;;;;;;15.61;58.52;102587.41;5047852;28;20017;-83
2022/05/09 07:54:49;;;;;;;29.83;9.30;;;;;;;15.80;62.90;102599.03;5049457;28;20020;-83
2022/05/09 07:57:15;;;;;;;23.80;6.97;;;;;;;15.94;59.72;102600.38;5047822;28;20645;-83
2022/05/09 07:59:41;;;;;;;21.38;7.10;;;;;;;15.95;57.64;102594.81;5020202;28;20048;-82
2022/05/09 08:02:06;;;;;;;25.10;6.95;;;;;;;16.02;59.02;102592.34;5039724;28;20033;-82
2022/05/09 08:04:32;;;;;;;23.75;8.30;;;;;;;16.09;58.16;102589.88;5042025;28;20033;-83
2022/05/09 08:06:57;;;;;;;26.35;7.63;;;;;;;16.26;58.41;102593.56;5042227;28;20036;-83
2022/05/09 08:09:22;;;;;;;28.42;7.50;;;;;;;16.40;58.14;102596.56;5026330;28;20027;-83
2022/05/09 08:11:48;;;;;;;15.18;7.25;;;;;;;16.50;56.70;102593.78;5048409;28;20098;-83
2022/05/09 08:14:13;;;;;;;20.42;7.18;;;;;;;16.62;58.29;102598.94;5049237;28;20041;-82
2022/05/09 08:16:40;;;;;;;31.08;7.25;;;;;;;16.72;57.93;102595.09;5046880;28;20037;-83
2022/05/09 08:19:05;;;;;;;18.98;7.05;;;;;;;16.86;56.15;102599.09;5059120;28;20571;-83
2022/05/09 08:21:31;;;;;;;17.08;6.85;;;;;;;17.00;54.46;102597.66;5055402;28;20116;-83
2022/05/09 08:23:58;;;;;;;30.33;7.30;;;;;;;17.18;54.94;102596.75;5049290;28;20550;-83
2022/05/09 08:26:24;;;;;;;20.58;7.22;;;;;;;17.31;53.38;102592.56;5045693;28;20392;-83
2022/05/09 08:28:53;;;;;;;24.15;7.63;;;;;;;17.38;52.31;102587.38;5050416;28;20042;-83
2022/05/09 08:31:18;;;;;;;21.23;7.28;;;;;;;17.51;51.54;102598.56;5084359;28;20064;-82
2022/05/09 08:33:52;;;;;;;18.30;6.43;;;;;;;17.63;51.39;102593.66;5055789;28;20553;-84
2022/05/09 08:39:07;;;;;;;27.40;6.40;;;;;;;17.84;54.25;102593.22;5045533;28;20735;-84
2022/05/09 08:42:04;;;;;;;26.40;6.50;;;;;;;18.11;52.13;102599.38;5045015;28;20059;-84
2022/05/09 08:44:51;;;;;;;22.92;6.30;;;;;;;18.31;49.94;102594.44;5040467;28;20044;-84
2022/05/09 08:47:49;;;;;;;20.40;5.95;;;;;;;18.45;48.52;102590.22;5046051;28;20467;-84
2022/05/09 08:50:52;;;;;;;21.75;6.50;;;;;;;18.57;49.91;102590.72;5045502;28;20689;-83
2022/05/09 08:53:24;;;;;;;17.75;6.57;;;;;;;18.85;52.85;102588.47;5064732;28;20069;-83
2022/05/09 08:55:51;;;;;;;20.52;6.57;;;;;;;18.99;50.03;102592.31;5064356;28;20059;-84
2022/05/09 08:58:37;;;;;;;23.17;6.72;;;;;;;19.14;51.66;102589.75;5064925;28;20028;-83
2022/05/09 09:01:09;;;;;;;15.82;7.03;;;;;;;19.18;49.94;102594.63;5062399;28;20376;-83
2022/05/09 09:03:38;;;;;;;26.45;7.00;;;;;;;19.22;50.60;102586.16;5061427;28;20120;-83
2022/05/09 09:06:19;;;;;;;22.27;7.13;;;;;;;19.22;47.96;102578.88;5061847;28;20020;-82
2022/05/09 09:08:58;;;;;;;26.73;7.10;;;;;;;19.45;47.36;102575.38;5061904;28;20031;-83
2022/05/09 09:11:49;;;;;;;22.52;7.35;;;;;;;19.60;47.77;102579.00;5037364;28;20268;-83
2022/05/09 09:14:28;;;;;;;19.65;6.90;;;;;;;19.51;46.14;102574.66;5059429;28;20634;-83
2022/05/09 09:17:11;;;;;;;20.05;6.85;;;;;;;19.62;45.93;102574.28;5061314;28;20024;-82
2022/05/09 09:19:48;;;;;;;19.02;6.43;;;;;;;19.66;44.30;102575.59;5062054;28;20108;-83
2022/05/09 09:22:35;;;;;;;21.17;7.22;;;;;;;19.74;43.88;102570.16;5060754;28;20025;-82
2022/05/09 09:25:25;;;;;;;20.38;7.03;;;;;;;19.74;44.38;102572.88;5061572;28;20142;-79
2022/05/09 09:27:55;;;;;;;16.63;6.75;;;;;;;19.83;43.42;102570.09;5061674;28;20044;-82
2022/05/09 09:30:23;;;;;;;19.03;6.93;;;;;;;19.89;44.26;102564.81;5056828;28;20112;-83
2022/05/09 09:33:04;;;;;;;21.25;6.57;;;;;;;20.21;47.73;102562.81;5048838;28;20837;-83
2022/05/09 09:35:55;;;;;;;21.33;7.23;;;;;;;20.36;45.14;102554.72;5029755;28;20033;-82
2022/05/09 09:38:31;;;;;;;16.98;6.10;;;;;;;20.58;43.40;102561.09;5040644;28;20777;-83
2022/05/09 09:41:17;;;;;;;24.55;5.88;;;;;;;20.83;43.67;102552.75;5040290;28;20025;-83
2022/05/09 09:43:43;;;;;;;17.33;5.28;;;;;;;20.97;42.16;102559.19;5040882;28;20039;-84
2022/05/09 09:46:09;;;;;;;17.73;6.07;;;;;;;20.88;39.33;102552.19;5040221;28;20021;-81
2022/05/09 09:48:35;;;;;;;16.35;5.90;;;;;;;20.83;41.01;102552.75;5026432;28;20033;-84
2022/05/09 09:51:04;;;;;;;19.20;6.32;;;;;;;21.00;41.45;102550.66;5041939;28;20017;-85
2022/05/09 09:53:37;;;;;;;17.02;6.03;;;;;;;21.17;40.57;102554.84;5042808;28;20053;-85
2022/05/09 09:56:08;;;;;;;17.50;6.38;;;;;;;21.15;40.79;102548.78;5043814;28;20445;-85
2022/05/09 09:58:34;;;;;;;16.85;6.30;;;;;;;21.07;39.49;102543.44;5024244;28;20396;-85
2022/05/09 10:01:25;;;;;;;16.13;6.90;;;;;;;21.05;42.35;102545.50;5041206;28;20028;-83
2022/05/09 10:04:27;;;;;;;21.55;7.43;;;;;;;21.21;40.14;102536.28;5018622;28;20060;-83
2022/05/09 10:07:01;;;;;;;21.98;6.80;;;;;;;21.37;42.86;102537.94;5019678;28;20041;-84
2022/05/09 10:09:30;;;;;;;22.35;6.68;;;;;;;21.47;40.07;102530.38;5041864;28;20448;-82
2022/05/09 10:12:18;;;;;;;23.08;7.13;;;;;;;21.71;41.86;102522.88;5041436;28;20079;-84
2022/05/09 10:14:44;;;;;;;23.38;7.00;;;;;;;21.73;42.13;102523.50;5040429;28;20430;-84
2022/05/09 10:17:17;;;;;;;26.23;7.40;;;;;;;21.87;41.75;102521.75;5020188;28;20136;-84
2022/05/09 10:19:43;;;;;;;18.15;6.43;;;;;;;22.12;39.35;102523.00;5040308;28;20028;-84
2022/05/09 10:25:05;;;;;;;19.83;6.22;;;;;;;22.43;40.59;102510.06;5039225;28;20549;-83
2022/05/09 10:27:32;;;;;;;17.02;6.40;;;;;;;22.40;36.26;102519.47;5037622;28;20028;-84
2022/05/09 10:30:05;;;;;;;15.55;6.15;;;;;;;22.38;38.17;102510.66;5037594;28;20044;-80
2022/05/09 10:32:57;;;;;;;17.65;6.57;;;;;;;22.34;37.50;102509.38;5038920;28;20020;-82
2022/05/09 10:35:53;;;;;;;15.43;5.90;;;;;;;22.67;40.36;102514.19;5038560;28;20021;-84
2022/05/09 10:38:26;;;;;;;21.52;6.55;;;;;;;22.67;36.59;102512.28;5038742;28;20124;-84
2022/05/09 10:40:59;;;;;;;20.60;5.88;;;;;;;22.73;37.86;102506.03;5040090;28;20315;-84
2022/05/09 10:43:38;;;;;;;17.40;6.18;;;;;;;23.01;38.31;102501.56;5041129;28;20078;-84
2022/05/09 10:46:09;;;;;;;18.92;6.35;;;;;;;23.12;37.75;102509.19;5039947;28;20025;-85
2022/05/09 10:48:59;;;;;;;29.00;7.28;;;;;;;23.21;35.89;102507.09;5040397;28;20455;-85
2022/05/09 10:51:49;;;;;;;18.52;6.38;;;;;;;23.22;35.28;102501.44;5039217;28;20770;-83
2022/05/09 10:54:20;;;;;;;21.60;7.25;;;;;;;23.12;35.07;102497.44;5026712;28;20059;-83
2022/05/09 10:56:53;;;;;;;18.70;6.60;;;;;;;23.11;35.87;102495.75;5057751;28;20020;-84
2022/05/09 10:59:27;;;;;;;16.75;6.00;;;;;;;23.32;38.09;102492.88;5057834;28;20047;-82
2022/05/09 11:02:00;;;;;;;18.45;6.68;;;;;;;23.16;36.67;102482.34;5040157;28;20020;-84
2022/05/09 11:04:28;;;;;;;18.88;7.00;;;;;;;23.11;34.64;102493.03;5058675;28;20506;-83
2022/05/09 11:07:16;;;;;;;18.27;6.15;;;;;;;23.24;37.49;102491.19;5035742;28;20268;-83
2022/05/09 11:10:07;;;;;;;20.58;6.60;;;;;;;23.23;35.73;102480.47;5039467;28;20407;-83
2022/05/09 11:12:57;;;;;;;23.42;6.68;;;;;;;23.06;36.94;102478.13;5039188;28;20041;-85
2022/05/09 11:15:39;;;;;;;19.15;6.80;;;;;;;23.19;37.48;102462.88;5038482;28;20190;-82
2022/05/09 11:18:13;;;;;;;24.40;6.97;;;;;;;23.31;35.31;102472.13;5039664;28;20641;-84
2022/05/09 11:20:50;;;;;;;15.93;5.97;;;;;;;23.34;35.45;102459.97;5019810;28;20040;-85
2022/05/09 11:23:32;;;;;;;17.58;5.95;;;;;;;23.65;36.97;102465.66;5038638;28;20070;-84
2022/05/09 11:26:27;;;;;;;19.50;6.32;;;;;;;23.80;35.38;102462.72;5039773;28;20044;-84
2022/05/09 11:29:10;;;;;;;20.33;6.18;;;;;;;23.79;33.87;102460.19;5059950;28;20632;-84
2022/05/09 11:32:00;;;;;;;17.38;6.10;;;;;;;23.63;34.15;102459.56;5060006;28;20229;-83
2022/05/09 11:35:03;;;;;;;18.75;6.72;;;;;;;23.75;34.70;102450.75;5059272;28;20104;-83
2022/05/09 11:37:54;;;;;;;16.02;6.18;;;;;;;23.73;33.63;102447.41;5080446;28;20027;-83
2022/05/09 11:40:37;;;;;;;20.60;6.85;;;;;;;23.62;33.41;102440.69;5041757;28;20521;-84
2022/05/09 11:43:32;;;;;;;19.45;6.32;;;;;;;23.66;36.39;102441.97;5040842;28;20132;-84
2022/05/09 11:46:06;;;;;;;24.75;6.63;;;;;;;23.78;34.61;102437.53;5023371;28;20029;-82
2022/05/09 11:48:56;;;;;;;18.77;5.70;;;;;;;24.01;34.10;102445.28;5041479;28;20073;-83
2022/05/09 11:51:44;;;;;;;27.33;8.65;;;;;;;23.99;34.20;102439.22;5041168;28;20021;-83